Time;durP1;ratioP1;P1;durP2;ratioP2;P2;SDS_P1;SDS_P2;PMS_P1;PMS_P2;Temp;Humidity;BMP_temperature;BMP_pressure;BME280_temperature;BME280_humidity;BME280_pressure;Samples;Min_cycle;Max_cycle;Signal;HPM_P1;HPM_P2
2022/09/09 00:00:17;;;;;;;2.33;0.97;;;22.10;99.90;;;;;;1035056;28;20030;-65
2022/09/09 00:00:59;;;;;;;1.20;0.88;;;22.10;99.90;;;;;;1035208;28;20349;-65
2022/09/09 00:01:56;;;;;;;1.48;1.00;;;22.00;99.90;;;;;;1034884;28;20023;-65
2022/09/09 00:02:28;;;;;;;3.10;1.10;;;22.10;99.90;;;;;;1035189;28;20029;-65
2022/09/09 00:03:06;;;;;;;1.48;1.10;;;22.10;99.90;;;;;;1035284;28;20022;-66
2022/09/09 00:03:46;;;;;;;4.55;1.63;;;22.10;99.90;;;;;;1035071;28;20728;-66
2022/09/09 00:04:27;;;;;;;1.02;0.90;;;22.10;99.90;;;;;;1035478;28;20260;-66
2022/09/09 00:05:32;;;;;;;1.40;1.00;;;22.10;99.90;;;;;;1035100;28;20029;-66
2022/09/09 00:06:14;;;;;;;1.98;1.00;;;22.10;99.90;;;;;;1035182;28;20029;-67
2022/09/09 00:06:55;;;;;;;2.13;0.98;;;22.10;99.90;;;;;;1035102;28;20026;-67
2022/09/09 00:07:48;;;;;;;1.13;0.90;;;22.10;99.90;;;;;;1031391;28;20106;-67
2022/09/09 00:08:23;;;;;;;2.03;1.10;;;22.10;99.90;;;;;;1031129;28;20100;-66
2022/09/09 00:09:06;;;;;;;1.48;0.90;;;22.10;99.90;;;;;;1034113;28;20029;-67
2022/09/09 00:10:00;;;;;;;1.67;0.90;;;22.10;99.90;;;;;;1034930;28;20813;-67
2022/09/09 00:10:41;;;;;;;1.27;0.75;;;22.10;99.90;;;;;;1034966;28;20024;-67
2022/09/09 00:11:15;;;;;;;1.48;1.10;;;22.10;99.90;;;;;;1034698;28;20116;-67
2022/09/09 00:11:56;;;;;;;2.50;1.10;;;22.10;99.90;;;;;;1035010;28;20024;-66
2022/09/09 00:12:29;;;;;;;0.70;0.70;;;22.10;99.90;;;;;;1034993;28;20088;-67
2022/09/09 00:13:15;;;;;;;1.15;0.80;;;22.10;99.90;;;;;;1034769;28;20353;-67
2022/09/09 00:13:51;;;;;;;1.73;0.90;;;22.10;99.90;;;;;;1035049;28;20018;-67
2022/09/09 00:14:36;;;;;;;2.00;1.05;;;22.10;99.90;;;;;;1034897;28;20030;-67
2022/09/09 00:15:20;;;;;;;1.75;0.80;;;22.10;99.90;;;;;;1033618;28;20080;-67
2022/09/09 00:16:16;;;;;;;0.70;0.70;;;22.10;99.90;;;;;;1035156;28;20030;-67
2022/09/09 00:16:54;;;;;;;2.22;0.90;;;22.10;99.90;;;;;;1031027;28;20048;-67
2022/09/09 00:17:41;;;;;;;1.25;1.08;;;22.00;99.90;;;;;;1030885;28;20377;-66
2022/09/09 00:18:21;;;;;;;1.77;1.05;;;22.00;99.90;;;;;;1033518;28;20034;-67
2022/09/09 00:19:03;;;;;;;1.85;1.10;;;22.00;99.90;;;;;;1034969;28;20046;-66
2022/09/09 00:19:55;;;;;;;1.48;0.85;;;22.00;99.90;;;;;;1034267;28;20026;-67
2022/09/09 00:20:35;;;;;;;1.33;0.85;;;22.00;99.90;;;;;;1034518;28;20025;-67
2022/09/09 00:21:12;;;;;;;1.58;0.77;;;22.00;99.90;;;;;;1034984;28;20026;-66
2022/09/09 00:22:13;;;;;;;0.73;0.70;;;22.00;99.90;;;;;;1034362;28;20105;-67
2022/09/09 00:22:52;;;;;;;1.17;0.80;;;22.00;99.90;;;;;;1031107;28;20071;-66
2022/09/09 00:23:30;;;;;;;2.08;0.93;;;22.00;99.90;;;;;;1034791;28;20079;-66
2022/09/09 00:24:09;;;;;;;1.73;1.08;;;22.00;99.90;;;;;;1035213;28;20022;-66
2022/09/09 00:24:48;;;;;;;1.85;1.05;;;22.00;99.90;;;;;;1034880;28;20473;-66
2022/09/09 00:25:40;;;;;;;2.55;0.90;;;22.00;99.90;;;;;;1031274;28;20165;-66
2022/09/09 00:26:24;;;;;;;1.98;0.82;;;22.00;99.90;;;;;;1033841;28;20077;-66
2022/09/09 00:27:08;;;;;;;3.60;1.17;;;22.00;99.90;;;;;;1035148;28;20034;-66
2022/09/09 00:27:45;;;;;;;0.90;0.80;;;22.00;99.90;;;;;;1035620;28;20010;-66
2022/09/09 00:28:22;;;;;;;1.60;1.15;;;22.00;99.90;;;;;;1037665;28;20633;-66
2022/09/09 00:29:07;;;;;;;1.77;0.82;;;22.00;99.90;;;;;;1034549;28;20050;-66
2022/09/09 00:29:53;;;;;;;1.20;0.82;;;22.00;99.90;;;;;;1034760;28;20115;-65
2022/09/09 00:30:26;;;;;;;1.42;0.80;;;22.00;99.90;;;;;;1030884;28;20675;-65
2022/09/09 00:31:07;;;;;;;1.45;0.95;;;22.00;99.90;;;;;;1031004;28;20026;-65
2022/09/09 00:31:38;;;;;;;1.20;1.00;;;22.00;99.90;;;;;;1032112;28;20026;-65
2022/09/09 00:32:14;;;;;;;2.83;0.98;;;22.00;99.90;;;;;;1035080;28;20018;-66
2022/09/09 00:32:45;;;;;;;2.35;1.00;;;22.00;99.90;;;;;;1035251;28;20037;-66
2022/09/09 00:33:20;;;;;;;1.80;1.00;;;22.00;99.90;;;;;;1034910;28;20018;-66
2022/09/09 00:33:53;;;;;;;1.50;1.00;;;22.00;99.90;;;;;;1035162;28;20120;-65
2022/09/09 00:34:26;;;;;;;1.02;0.93;;;21.90;99.90;;;;;;1034574;28;20014;-66
2022/09/09 00:35:02;;;;;;;1.27;0.98;;;21.90;99.90;;;;;;1034619;28;20113;-66
2022/09/09 00:35:39;;;;;;;1.98;1.08;;;21.90;99.90;;;;;;1034567;28;20022;-66
2022/09/09 00:36:17;;;;;;;1.10;1.00;;;21.90;99.90;;;;;;1035007;28;20026;-66
2022/09/09 00:36:51;;;;;;;1.08;0.93;;;21.90;99.90;;;;;;1035199;28;20128;-66
2022/09/09 00:37:25;;;;;;;2.40;1.10;;;21.90;99.90;;;;;;1034732;28;20053;-66
2022/09/09 00:38:03;;;;;;;2.15;1.05;;;21.90;99.90;;;;;;1035144;28;20101;-66
2022/09/09 00:38:37;;;;;;;0.63;0.60;;;21.90;99.90;;;;;;1034427;28;20056;-66
2022/09/09 00:39:25;;;;;;;1.25;1.00;;;21.90;99.90;;;;;;1035053;28;20013;-66
2022/09/09 00:39:59;;;;;;;1.48;0.98;;;21.90;99.90;;;;;;1034785;28;20110;-66
2022/09/09 00:40:38;;;;;;;1.13;0.95;;;21.90;99.90;;;;;;1034876;28;20104;-66
2022/09/09 00:41:17;;;;;;;1.67;0.88;;;21.90;99.90;;;;;;1034989;28;20018;-66
2022/09/09 00:42:04;;;;;;;1.48;1.15;;;21.90;99.90;;;;;;1034863;28;20457;-66
2022/09/09 00:42:45;;;;;;;1.10;1.00;;;21.90;99.90;;;;;;1034271;28;20141;-66
2022/09/09 00:43:24;;;;;;;1.17;0.88;;;21.90;99.90;;;;;;1034708;28;20022;-66
2022/09/09 00:44:15;;;;;;;1.23;0.93;;;21.90;99.90;;;;;;1034533;28;20025;-66
2022/09/09 00:44:51;;;;;;;1.08;0.90;;;21.90;99.90;;;;;;1035098;28;20072;-66
2022/09/09 00:45:45;;;;;;;1.63;1.23;;;21.90;99.90;;;;;;1035102;28;20033;-66
2022/09/09 00:46:55;;;;;;;1.23;0.90;;;21.90;99.90;;;;;;1035201;28;20099;-65
2022/09/09 00:47:39;;;;;;;1.70;1.10;;;21.90;99.90;;;;;;1035342;28;20026;-66
2022/09/09 00:48:11;;;;;;;2.50;1.13;;;21.90;99.90;;;;;;1035116;28;20022;-65
2022/09/09 00:49:10;;;;;;;2.10;1.15;;;21.90;99.90;;;;;;1034532;28;20006;-66
2022/09/09 00:50:01;;;;;;;1.60;1.02;;;21.90;99.90;;;;;;1034760;28;20014;-65
2022/09/09 00:50:48;;;;;;;1.00;0.90;;;21.90;99.90;;;;;;1034739;28;20006;-66
2022/09/09 00:51:50;;;;;;;1.38;1.00;;;21.90;99.90;;;;;;1031099;28;20014;-65
2022/09/09 00:52:29;;;;;;;1.13;0.77;;;21.90;99.90;;;;;;1034045;28;20093;-65
2022/09/09 00:53:22;;;;;;;1.50;0.88;;;21.90;99.90;;;;;;1034903;28;20432;-66
2022/09/09 00:54:24;;;;;;;1.25;0.80;;;21.90;99.90;;;;;;1034968;28;20022;-66
2022/09/09 00:55:25;;;;;;;1.40;0.85;;;21.90;99.90;;;;;;1034595;28;20373;-66
2022/09/09 00:56:18;;;;;;;1.25;1.10;;;21.90;99.90;;;;;;1026247;28;20023;-66
2022/09/09 00:57:18;;;;;;;1.48;1.00;;;21.90;99.90;;;;;;1033618;28;20132;-66
2022/09/09 00:57:52;;;;;;;1.60;1.00;;;21.90;99.90;;;;;;1035105;28;20014;-66
2022/09/09 00:58:22;;;;;;;1.63;1.00;;;21.90;99.90;;;;;;1034078;28;20025;-66
2022/09/09 00:59:28;;;;;;;1.80;1.07;;;21.90;99.90;;;;;;1034549;28;20033;-66
2022/09/09 01:00:19;;;;;;;0.73;0.63;;;21.90;99.90;;;;;;1026935;28;20517;-66
2022/09/09 01:00:58;;;;;;;3.08;0.95;;;21.80;99.90;;;;;;1035079;28;20026;-66
2022/09/09 01:01:28;;;;;;;1.40;0.90;;;21.80;99.90;;;;;;1035001;28;20026;-66
2022/09/09 01:01:59;;;;;;;1.40;0.90;;;21.90;99.90;;;;;;1034699;28;20133;-66
2022/09/09 01:02:38;;;;;;;1.13;0.80;;;21.80;99.90;;;;;;1034388;28;20123;-66
2022/09/09 01:03:21;;;;;;;1.15;0.70;;;21.80;99.90;;;;;;1030725;28;20017;-66
2022/09/09 01:03:59;;;;;;;1.88;1.17;;;21.80;99.90;;;;;;1030340;28;20026;-66
2022/09/09 01:04:34;;;;;;;0.93;0.70;;;21.80;99.90;;;;;;1034353;28;20082;-66
2022/09/09 01:05:17;;;;;;;2.30;1.10;;;21.80;99.90;;;;;;1034808;28;20021;-66
2022/09/09 01:05:51;;;;;;;1.45;0.85;;;21.80;99.90;;;;;;1034810;28;20017;-66
2022/09/09 01:06:34;;;;;;;1.08;0.95;;;21.80;99.90;;;;;;1035001;28;20017;-66
2022/09/09 01:07:17;;;;;;;1.13;0.93;;;21.80;99.90;;;;;;1034716;28;20013;-65
2022/09/09 01:07:49;;;;;;;1.88;1.00;;;21.80;99.90;;;;;;1030565;28;20489;-66
2022/09/09 01:08:22;;;;;;;1.73;1.13;;;21.80;99.90;;;;;;1030658;28;20716;-66
2022/09/09 01:09:08;;;;;;;2.00;1.10;;;21.80;99.90;;;;;;1030656;28;20587;-66
2022/09/09 01:09:59;;;;;;;1.10;1.00;;;21.80;99.90;;;;;;1030840;28;20109;-66
2022/09/09 01:10:39;;;;;;;1.23;0.90;;;21.80;99.90;;;;;;1031068;28;20022;-65
2022/09/09 01:11:47;;;;;;;1.83;0.90;;;21.80;99.90;;;;;;1033837;28;20018;-66
2022/09/09 01:12:26;;;;;;;1.15;1.00;;;21.80;99.90;;;;;;1030248;28;20075;-66
2022/09/09 01:13:01;;;;;;;1.85;0.98;;;21.80;99.90;;;;;;1030246;28;20101;-66
2022/09/09 01:13:34;;;;;;;1.88;1.00;;;21.80;99.90;;;;;;1035079;28;20033;-66
2022/09/09 01:14:26;;;;;;;1.92;1.00;;;21.80;99.90;;;;;;1034510;28;20018;-66
2022/09/09 01:15:08;;;;;;;1.10;0.90;;;21.80;99.90;;;;;;1034650;28;20026;-66
2022/09/09 01:15:41;;;;;;;2.60;1.38;;;21.80;99.90;;;;;;1034556;28;20018;-66
2022/09/09 01:16:12;;;;;;;1.85;1.13;;;21.70;99.90;;;;;;1034925;28;20025;-66
2022/09/09 01:16:44;;;;;;;2.55;1.30;;;21.70;99.90;;;;;;1035151;28;20037;-66
2022/09/09 01:17:23;;;;;;;2.25;1.02;;;21.70;99.90;;;;;;1034720;28;20026;-66
2022/09/09 01:18:04;;;;;;;1.92;1.40;;;21.70;99.90;;;;;;1035015;28;20062;-66
2022/09/09 01:18:46;;;;;;;1.77;1.05;;;21.70;99.90;;;;;;1034608;28;20370;-66
2022/09/09 01:19:32;;;;;;;1.70;0.82;;;21.70;99.90;;;;;;1034870;28;20022;-66
2022/09/09 01:20:31;;;;;;;2.22;1.10;;;21.70;99.90;;;;;;1034748;28;20552;-66
2022/09/09 01:21:16;;;;;;;1.13;0.82;;;21.70;99.90;;;;;;1034081;28;20034;-66
2022/09/09 01:22:25;;;;;;;2.58;1.20;;;21.70;99.90;;;;;;1034738;28;20045;-66
2022/09/09 01:23:08;;;;;;;1.42;1.15;;;21.70;99.90;;;;;;1029993;28;20070;-66
2022/09/09 01:23:55;;;;;;;2.17;1.02;;;21.70;99.90;;;;;;1029815;28;20174;-65
2022/09/09 01:24:55;;;;;;;2.47;1.35;;;21.70;99.90;;;;;;1025897;28;20552;-65
2022/09/09 01:25:31;;;;;;;1.80;1.08;;;21.70;99.90;;;;;;1026908;28;20094;-66
2022/09/09 01:26:27;;;;;;;1.65;1.13;;;21.70;99.90;;;;;;1030375;28;20452;-66
2022/09/09 01:27:02;;;;;;;1.15;1.05;;;21.80;99.90;;;;;;1030638;28;20034;-66
2022/09/09 01:27:34;;;;;;;1.33;0.90;;;21.80;99.90;;;;;;1030576;28;20374;-66
2022/09/09 01:28:09;;;;;;;1.90;1.00;;;21.80;99.90;;;;;;1036723;28;20041;-65
2022/09/09 01:28:46;;;;;;;1.65;1.00;;;21.80;99.90;;;;;;1034289;28;20014;-66
2022/09/09 01:29:20;;;;;;;1.40;0.93;;;21.80;99.90;;;;;;1034551;28;20064;-66
2022/09/09 01:29:51;;;;;;;1.08;0.98;;;21.80;99.90;;;;;;1035429;28;20018;-66
2022/09/09 01:30:22;;;;;;;2.53;1.17;;;21.80;99.90;;;;;;1034833;28;20022;-67
2022/09/09 01:30:53;;;;;;;1.60;0.90;;;21.80;99.90;;;;;;1034566;28;20018;-65
2022/09/09 01:31:37;;;;;;;1.67;1.20;;;21.80;99.90;;;;;;1034692;28;20014;-66
2022/09/09 01:32:40;;;;;;;3.03;1.27;;;21.80;99.90;;;;;;1034597;28;20017;-66
2022/09/09 01:33:15;;;;;;;1.27;0.90;;;21.80;99.90;;;;;;1034636;28;20041;-65
2022/09/09 01:33:45;;;;;;;2.08;1.25;;;21.80;99.90;;;;;;1034000;28;20025;-66
2022/09/09 01:34:16;;;;;;;1.73;1.17;;;21.80;99.90;;;;;;1034245;28;20010;-65
2022/09/09 01:34:47;;;;;;;2.20;1.00;;;21.80;99.90;;;;;;1034274;28;20509;-65
2022/09/09 01:35:45;;;;;;;1.27;0.93;;;21.80;99.90;;;;;;1034428;28;20014;-66
2022/09/09 01:36:24;;;;;;;1.80;1.13;;;21.80;99.90;;;;;;1034391;28;20052;-66
2022/09/09 01:37:00;;;;;;;1.30;0.90;;;21.80;99.90;;;;;;1032172;28;20022;-66
2022/09/09 01:37:31;;;;;;;1.92;1.20;;;21.80;99.90;;;;;;1034673;28;20009;-66
2022/09/09 01:38:01;;;;;;;2.50;1.20;;;21.80;99.90;;;;;;1034664;28;20037;-66
2022/09/09 01:38:33;;;;;;;2.03;1.30;;;21.80;99.90;;;;;;1034510;28;20018;-66
2022/09/09 01:39:04;;;;;;;2.15;1.15;;;21.80;99.90;;;;;;1034643;28;20640;-66
2022/09/09 01:39:36;;;;;;;2.83;1.03;;;21.80;99.90;;;;;;1034230;28;20632;-66
2022/09/09 01:40:07;;;;;;;1.30;1.10;;;21.80;99.90;;;;;;1034639;28;20010;-66
2022/09/09 01:40:38;;;;;;;2.35;1.40;;;21.70;99.90;;;;;;1034221;28;20025;-66
2022/09/09 01:41:08;;;;;;;1.67;1.10;;;21.70;99.90;;;;;;1034464;28;20518;-66
2022/09/09 01:41:39;;;;;;;2.23;1.00;;;21.70;99.90;;;;;;1034270;28;20379;-66
2022/09/09 01:42:14;;;;;;;1.53;1.00;;;21.70;99.90;;;;;;1034747;28;20020;-66
2022/09/09 01:42:46;;;;;;;1.00;0.90;;;21.70;99.90;;;;;;1031131;28;20402;-66
2022/09/09 01:43:16;;;;;;;1.57;1.03;;;21.70;99.90;;;;;;1034514;28;20389;-66
2022/09/09 01:43:47;;;;;;;1.23;0.93;;;21.70;99.90;;;;;;1034303;28;20037;-66
2022/09/09 01:44:19;;;;;;;1.43;1.10;;;21.70;99.90;;;;;;1034611;28;20022;-67
2022/09/09 01:44:50;;;;;;;1.85;0.90;;;21.70;99.90;;;;;;1034350;28;20112;-66
2022/09/09 01:45:21;;;;;;;1.73;1.10;;;21.70;99.90;;;;;;1034569;28;20095;-66
2022/09/09 01:45:55;;;;;;;1.10;0.85;;;21.70;99.90;;;;;;1034402;28;20110;-66
2022/09/09 01:46:27;;;;;;;2.38;1.20;;;21.70;99.90;;;;;;1034982;28;20100;-66
2022/09/09 01:46:58;;;;;;;0.77;0.70;;;21.70;99.90;;;;;;1034421;28;20022;-66
2022/09/09 01:47:29;;;;;;;1.17;1.00;;;21.70;99.90;;;;;;1034663;28;20069;-66
2022/09/09 01:48:00;;;;;;;1.47;0.90;;;21.70;99.90;;;;;;1034530;28;20032;-66
2022/09/09 01:48:32;;;;;;;1.38;0.80;;;21.70;99.90;;;;;;1033977;28;20014;-66
2022/09/09 01:49:06;;;;;;;1.40;0.95;;;21.70;99.90;;;;;;1034580;28;20146;-65
2022/09/09 01:49:37;;;;;;;1.10;0.90;;;21.70;99.90;;;;;;1034483;28;20022;-66
2022/09/09 01:50:11;;;;;;;1.53;0.80;;;21.70;99.90;;;;;;1034471;28;20049;-66
2022/09/09 01:50:41;;;;;;;1.20;0.85;;;21.70;99.90;;;;;;1034621;28;20392;-66
2022/09/09 01:51:12;;;;;;;1.07;0.93;;;21.70;99.90;;;;;;1034980;28;20659;-66
2022/09/09 01:51:46;;;;;;;1.27;0.80;;;21.70;99.90;;;;;;1034452;28;20705;-66
2022/09/09 01:52:16;;;;;;;1.48;0.98;;;21.70;99.90;;;;;;1034602;28;20018;-66
2022/09/09 01:52:52;;;;;;;1.27;0.77;;;21.70;99.90;;;;;;1034545;28;20025;-67
2022/09/09 01:53:23;;;;;;;1.40;0.80;;;21.70;99.90;;;;;;1034452;28;20044;-67
2022/09/09 01:53:54;;;;;;;1.13;1.02;;;21.60;99.90;;;;;;1034425;28;20202;-67
2022/09/09 01:54:28;;;;;;;1.83;0.80;;;21.70;99.90;;;;;;1034481;28;20022;-67
2022/09/09 01:54:59;;;;;;;1.25;1.15;;;21.70;99.90;;;;;;1034360;28;20140;-67
2022/09/09 01:55:36;;;;;;;1.93;0.90;;;21.70;99.90;;;;;;1034575;28;20021;-67
2022/09/09 01:56:18;;;;;;;1.70;0.88;;;21.70;99.90;;;;;;1034414;28;20358;-67
2022/09/09 01:57:26;;;;;;;1.75;1.13;;;21.60;99.90;;;;;;1033020;28;20577;-67
2022/09/09 01:58:05;;;;;;;2.15;1.15;;;21.60;99.90;;;;;;1034638;28;20380;-67
2022/09/09 01:59:08;;;;;;;2.15;1.30;;;21.60;99.90;;;;;;1034583;28;20037;-67
2022/09/09 02:00:11;;;;;;;1.80;1.30;;;21.60;99.90;;;;;;1034876;28;20022;-67
2022/09/09 02:00:50;;;;;;;2.70;0.88;;;21.60;99.90;;;;;;1034925;28;20022;-66
2022/09/09 02:01:51;;;;;;;1.30;1.00;;;21.60;99.90;;;;;;1034177;28;20069;-67
2022/09/09 02:02:44;;;;;;;1.67;1.00;;;21.60;99.90;;;;;;1030307;28;20169;-67
2022/09/09 02:03:28;;;;;;;2.40;1.23;;;21.60;99.90;;;;;;1033545;28;20076;-67
2022/09/09 02:04:04;;;;;;;0.88;0.80;;;21.60;99.90;;;;;;1034538;28;20018;-67
2022/09/09 02:04:50;;;;;;;1.33;0.77;;;21.60;99.90;;;;;;1034565;28;20052;-67
2022/09/09 02:05:36;;;;;;;1.17;1.00;;;21.60;99.90;;;;;;1034787;28;20022;-67
2022/09/09 02:06:21;;;;;;;2.17;1.00;;;21.60;99.90;;;;;;1035140;28;20477;-66
2022/09/09 02:06:56;;;;;;;0.80;0.80;;;21.60;99.90;;;;;;1034799;28;20131;-67
2022/09/09 02:07:30;;;;;;;1.33;0.90;;;21.60;99.90;;;;;;1031682;28;20049;-67
2022/09/09 02:08:09;;;;;;;1.00;0.90;;;21.60;99.90;;;;;;1034769;28;20028;-67
2022/09/09 02:08:46;;;;;;;1.15;0.70;;;21.60;99.90;;;;;;1034619;28;20105;-67
2022/09/09 02:09:21;;;;;;;1.70;0.70;;;21.60;99.90;;;;;;1034487;28;20056;-67
2022/09/09 02:10:02;;;;;;;1.75;0.98;;;21.60;99.90;;;;;;1034979;28;20030;-67
2022/09/09 02:11:11;;;;;;;0.77;0.75;;;21.60;99.90;;;;;;1035485;28;20569;-67
2022/09/09 02:11:44;;;;;;;1.38;0.80;;;21.60;99.90;;;;;;1035212;28;20026;-67
2022/09/09 02:12:18;;;;;;;1.27;0.93;;;21.60;99.90;;;;;;1035363;28;20014;-67
2022/09/09 02:12:56;;;;;;;0.80;0.77;;;21.60;99.90;;;;;;1037935;28;20124;-67
2022/09/09 02:13:28;;;;;;;1.30;1.05;;;21.60;99.90;;;;;;1037744;28;20478;-67
2022/09/09 02:14:20;;;;;;;2.28;1.55;;;21.60;99.90;;;;;;1035382;28;20026;-67
2022/09/09 02:14:56;;;;;;;1.85;1.10;;;21.60;99.90;;;;;;1032172;28;20025;-67
2022/09/09 02:15:35;;;;;;;2.08;1.23;;;21.60;99.90;;;;;;1035749;28;20698;-67
2022/09/09 02:16:38;;;;;;;1.15;1.05;;;21.60;99.90;;;;;;1035739;28;20017;-68
2022/09/09 02:17:12;;;;;;;2.20;0.90;;;21.60;99.90;;;;;;1035176;28;20142;-67
2022/09/09 02:17:44;;;;;;;2.17;1.20;;;21.60;99.90;;;;;;1035134;28;20060;-67
2022/09/09 02:18:23;;;;;;;1.73;1.02;;;21.60;99.90;;;;;;1034890;28;20864;-67
2022/09/09 02:18:56;;;;;;;;;;;21.60;99.90;;;;;;1035797;28;20688;-67
2022/09/09 02:19:32;;;;;;;0.93;0.75;;;21.60;99.90;;;;;;1035028;28;19909;-67
2022/09/09 02:20:09;;;;;;;2.78;1.08;;;21.60;99.90;;;;;;1035571;28;20022;-67
2022/09/09 02:20:41;;;;;;;1.70;0.90;;;21.60;99.90;;;;;;1035343;28;20022;-67
2022/09/09 02:21:13;;;;;;;1.58;1.00;;;21.50;99.90;;;;;;1035610;28;20519;-67
2022/09/09 02:21:46;;;;;;;1.20;0.80;;;21.50;99.90;;;;;;1035666;28;20018;-67
2022/09/09 02:22:21;;;;;;;1.85;1.00;;;21.50;99.90;;;;;;1035655;28;20014;-67
2022/09/09 02:22:53;;;;;;;1.23;1.05;;;21.50;99.90;;;;;;1035561;28;20034;-67
2022/09/09 02:23:24;;;;;;;1.52;1.00;;;21.50;99.90;;;;;;1035495;28;20076;-67
2022/09/09 02:23:58;;;;;;;1.70;0.97;;;21.50;99.90;;;;;;1035722;28;20076;-67
2022/09/09 02:24:33;;;;;;;1.58;1.00;;;21.50;99.90;;;;;;1034879;28;20029;-67
2022/09/09 02:25:05;;;;;;;1.35;0.90;;;21.50;99.90;;;;;;1035442;28;20062;-66
2022/09/09 02:25:36;;;;;;;1.27;1.17;;;21.50;99.90;;;;;;1035126;28;20022;-67
2022/09/09 02:26:10;;;;;;;1.58;1.10;;;21.50;99.90;;;;;;1035249;28;20754;-67
2022/09/09 02:26:43;;;;;;;1.20;0.80;;;21.50;99.90;;;;;;1035181;28;20030;-67
2022/09/09 02:27:16;;;;;;;1.65;1.10;;;21.50;99.90;;;;;;1035730;28;20014;-67
2022/09/09 02:27:49;;;;;;;0.73;0.60;;;21.50;99.90;;;;;;1035314;28;20013;-67
2022/09/09 02:28:23;;;;;;;1.33;0.85;;;21.50;99.90;;;;;;1035574;28;20549;-67
2022/09/09 02:28:57;;;;;;;1.10;0.80;;;21.50;99.90;;;;;;1035410;28;20022;-67
2022/09/09 02:29:35;;;;;;;1.52;1.20;;;21.50;99.90;;;;;;1035721;28;20080;-67
2022/09/09 02:30:07;;;;;;;2.33;1.30;;;21.50;99.90;;;;;;1035542;28;20058;-67
2022/09/09 02:30:39;;;;;;;3.47;0.98;;;21.50;99.90;;;;;;1035444;28;20344;-67
2022/09/09 02:31:10;;;;;;;1.10;0.90;;;21.50;99.90;;;;;;1035781;28;20096;-67
2022/09/09 02:31:44;;;;;;;1.20;0.90;;;21.50;99.90;;;;;;1035507;28;20059;-67
2022/09/09 02:32:23;;;;;;;1.75;0.90;;;21.50;99.90;;;;;;1035270;28;20021;-67
2022/09/09 02:32:57;;;;;;;1.65;0.88;;;21.50;99.90;;;;;;1034986;28;20025;-67
2022/09/09 02:33:34;;;;;;;1.17;0.70;;;21.50;99.90;;;;;;1035226;28;20029;-67
2022/09/09 02:34:10;;;;;;;1.92;0.70;;;21.50;99.90;;;;;;1035617;28;20493;-67
2022/09/09 02:34:48;;;;;;;1.75;0.95;;;21.50;99.90;;;;;;1035046;28;20073;-67
2022/09/09 02:35:24;;;;;;;0.90;0.82;;;21.50;99.90;;;;;;1035239;28;20391;-67
2022/09/09 02:36:01;;;;;;;1.20;1.10;;;21.50;99.90;;;;;;1035136;28;20084;-67
2022/09/09 02:36:34;;;;;;;1.23;1.02;;;21.50;99.90;;;;;;1035073;28;20026;-67
2022/09/09 02:37:07;;;;;;;2.20;1.20;;;21.40;99.90;;;;;;1035297;28;20136;-67
2022/09/09 02:37:40;;;;;;;1.70;1.13;;;21.40;99.90;;;;;;1035690;28;20020;-67
2022/09/09 02:38:13;;;;;;;1.45;0.80;;;21.40;99.90;;;;;;1035348;28;20017;-67
2022/09/09 02:38:50;;;;;;;1.30;0.80;;;21.40;99.90;;;;;;1035514;28;20046;-67
2022/09/09 02:39:20;;;;;;;1.33;0.93;;;21.40;99.90;;;;;;1035508;28;20478;-67
2022/09/09 02:39:51;;;;;;;1.10;0.90;;;21.40;99.90;;;;;;1035632;28;20484;-67
2022/09/09 02:40:22;;;;;;;1.23;0.90;;;21.40;99.90;;;;;;1035422;28;20637;-66
2022/09/09 02:40:52;;;;;;;0.87;0.80;;;21.40;99.90;;;;;;1035635;28;20022;-67
2022/09/09 02:41:29;;;;;;;1.33;0.80;;;21.40;99.90;;;;;;1035204;28;20528;-67
2022/09/09 02:41:59;;;;;;;0.93;0.80;;;21.40;99.90;;;;;;1035583;28;20014;-67
2022/09/09 02:42:30;;;;;;;1.17;1.00;;;21.40;99.90;;;;;;1035195;28;20026;-67
2022/09/09 02:43:02;;;;;;;1.23;0.70;;;21.40;99.90;;;;;;1035368;28;20116;-67
2022/09/09 02:43:34;;;;;;;1.23;1.02;;;21.40;99.90;;;;;;1034832;28;20018;-67
2022/09/09 02:44:17;;;;;;;1.25;0.60;;;21.40;99.90;;;;;;1031380;28;20074;-67
2022/09/09 02:44:47;;;;;;;0.98;0.88;;;21.40;99.90;;;;;;1033023;28;20014;-67
2022/09/09 02:45:25;;;;;;;1.13;0.80;;;21.40;99.90;;;;;;1035301;28;20014;-67
2022/09/09 02:46:20;;;;;;;1.52;1.17;;;21.40;99.90;;;;;;1035530;28;20381;-67
2022/09/09 02:47:05;;;;;;;1.70;0.90;;;21.40;99.90;;;;;;1035463;28;20104;-67
2022/09/09 02:47:41;;;;;;;0.90;0.80;;;21.40;99.90;;;;;;1034936;28;20782;-67
2022/09/09 02:48:20;;;;;;;1.95;1.10;;;21.40;99.90;;;;;;1035197;28;20093;-67
2022/09/09 02:49:11;;;;;;;0.73;0.70;;;21.40;99.90;;;;;;1035125;28;20010;-67
2022/09/09 02:49:55;;;;;;;0.80;0.80;;;21.40;99.90;;;;;;1035488;28;20080;-67
2022/09/09 02:50:53;;;;;;;1.33;0.90;;;21.40;99.90;;;;;;1035742;28;20365;-67
2022/09/09 02:51:31;;;;;;;1.90;1.05;;;21.40;99.90;;;;;;1035630;28;20397;-67
2022/09/09 02:52:06;;;;;;;0.80;0.80;;;21.40;99.90;;;;;;1035311;28;20022;-67
2022/09/09 02:53:10;;;;;;;1.77;1.00;;;21.40;99.90;;;;;;1031283;28;20023;-67
2022/09/09 02:53:50;;;;;;;1.30;0.90;;;21.40;99.90;;;;;;1034556;28;20052;-67
2022/09/09 02:54:30;;;;;;;1.45;0.82;;;21.40;99.90;;;;;;1035645;28;20014;-67
2022/09/09 02:55:12;;;;;;;2.92;1.10;;;21.40;99.90;;;;;;1035423;28;20006;-67
2022/09/09 02:56:14;;;;;;;2.10;0.95;;;21.40;99.90;;;;;;1035149;28;20439;-67
2022/09/09 02:56:54;;;;;;;0.77;0.60;;;21.40;99.90;;;;;;1034521;28;20025;-67
2022/09/09 02:57:27;;;;;;;1.65;0.85;;;21.40;99.90;;;;;;1035375;28;20021;-66
2022/09/09 02:57:59;;;;;;;0.85;0.60;;;21.40;99.90;;;;;;1031395;28;20014;-66
2022/09/09 02:58:30;;;;;;;1.35;0.70;;;21.40;99.90;;;;;;1032015;28;20101;-66
2022/09/09 02:59:04;;;;;;;1.00;0.77;;;21.40;99.90;;;;;;1035182;28;20116;-66
2022/09/09 02:59:34;;;;;;;1.13;0.90;;;21.40;99.90;;;;;;1035131;28;20029;-66
2022/09/09 03:00:06;;;;;;;1.30;0.90;;;21.40;99.90;;;;;;1035339;28;20096;-66
2022/09/09 03:00:39;;;;;;;1.13;0.85;;;21.40;99.90;;;;;;1035550;28;20021;-66
2022/09/09 03:01:10;;;;;;;0.93;0.80;;;21.40;99.90;;;;;;1035596;28;20025;-66
2022/09/09 03:01:41;;;;;;;1.37;0.97;;;21.40;99.90;;;;;;1035586;28;20048;-66
2022/09/09 03:02:12;;;;;;;1.33;0.55;;;21.40;99.90;;;;;;1035415;28;20116;-66
2022/09/09 03:02:44;;;;;;;1.27;0.85;;;21.40;99.90;;;;;;1035706;28;20534;-66
2022/09/09 03:03:16;;;;;;;0.65;0.65;;;21.40;99.90;;;;;;1035177;28;20655;-66
2022/09/09 03:03:46;;;;;;;0.80;0.60;;;21.40;99.90;;;;;;1035029;28;20018;-66
2022/09/09 03:04:17;;;;;;;0.93;0.83;;;21.40;99.90;;;;;;1035206;28;20054;-66
2022/09/09 03:04:51;;;;;;;1.13;0.90;;;21.40;99.90;;;;;;1035152;28;20469;-67
2022/09/09 03:05:22;;;;;;;1.55;0.77;;;21.40;99.90;;;;;;1035418;28;20539;-67
2022/09/09 03:05:52;;;;;;;1.57;0.70;;;21.40;99.90;;;;;;1035538;28;20472;-66
2022/09/09 03:06:23;;;;;;;1.80;1.03;;;21.40;99.90;;;;;;1035598;28;20014;-66
2022/09/09 03:06:53;;;;;;;2.03;0.80;;;21.40;99.90;;;;;;1035374;28;20054;-66
2022/09/09 03:07:24;;;;;;;0.90;0.70;;;21.40;99.90;;;;;;1035659;28;20090;-66
2022/09/09 03:07:54;;;;;;;1.67;1.07;;;21.40;99.90;;;;;;1035337;28;20033;-66
2022/09/09 03:08:27;;;;;;;1.13;0.83;;;21.40;99.90;;;;;;1035691;28;20018;-66
2022/09/09 03:09:00;;;;;;;1.17;1.08;;;21.30;99.90;;;;;;1035309;28;20038;-66
2022/09/09 03:09:32;;;;;;;1.92;0.90;;;21.30;99.90;;;;;;1035385;28;20049;-66
2022/09/09 03:10:03;;;;;;;1.35;0.90;;;21.30;99.90;;;;;;1035635;28;20404;-66
2022/09/09 03:10:34;;;;;;;1.77;1.00;;;21.30;99.90;;;;;;1035250;28;20677;-66
2022/09/09 03:11:05;;;;;;;1.60;1.00;;;21.30;99.90;;;;;;1035196;28;20022;-66
2022/09/09 03:11:36;;;;;;;0.90;0.70;;;21.30;99.90;;;;;;1035528;28;20013;-66
2022/09/09 03:12:08;;;;;;;1.73;1.63;;;21.30;99.90;;;;;;1031094;28;20022;-66
2022/09/09 03:12:38;;;;;;;1.95;1.00;;;21.30;99.90;;;;;;1030897;28;20085;-66
2022/09/09 03:13:09;;;;;;;1.07;0.80;;;21.30;99.90;;;;;;1031049;28;20069;-66
2022/09/09 03:13:40;;;;;;;1.00;0.90;;;21.30;99.90;;;;;;1031120;28;20022;-66
2022/09/09 03:14:11;;;;;;;1.20;0.90;;;21.30;99.90;;;;;;1030885;28;20512;-66
2022/09/09 03:14:43;;;;;;;2.33;1.00;;;21.30;99.90;;;;;;1030992;28;20552;-66
2022/09/09 03:15:14;;;;;;;0.82;0.82;;;21.30;99.90;;;;;;1030817;28;20025;-66
2022/09/09 03:15:45;;;;;;;1.00;0.60;;;21.30;99.90;;;;;;1031557;28;20433;-67
2022/09/09 03:16:15;;;;;;;0.87;0.77;;;21.30;99.90;;;;;;1034959;28;20676;-65
2022/09/09 03:16:46;;;;;;;1.33;0.90;;;21.30;99.90;;;;;;1035260;28;20109;-66
2022/09/09 03:17:17;;;;;;;1.27;0.90;;;21.30;99.90;;;;;;1034874;28;20091;-65
2022/09/09 03:17:47;;;;;;;1.00;0.67;;;21.30;99.90;;;;;;1035030;28;20030;-65
2022/09/09 03:18:18;;;;;;;1.00;0.70;;;21.30;99.90;;;;;;1034651;28;20026;-65
2022/09/09 03:18:48;;;;;;;2.00;0.93;;;21.30;99.90;;;;;;1035206;28;20049;-66
2022/09/09 03:19:20;;;;;;;2.23;0.97;;;21.30;99.90;;;;;;1034728;28;20024;-66
2022/09/09 03:19:54;;;;;;;0.93;0.70;;;21.30;99.90;;;;;;1035174;28;20032;-66
2022/09/09 03:20:26;;;;;;;1.85;1.05;;;21.30;99.90;;;;;;1035024;28;20085;-66
2022/09/09 03:20:57;;;;;;;1.40;1.00;;;21.20;99.90;;;;;;1035342;28;20025;-66